createdAt,value
2023-04-08T00:02:16.228Z,102134.22
2023-04-08T00:04:50.192Z,102146.53
2023-04-08T00:07:17.223Z,102150.34
2023-04-08T00:09:51.139Z,102147.03
2023-04-08T00:12:18.350Z,102155.97
2023-04-08T00:14:52.156Z,102158.06
2023-04-08T00:17:26.226Z,102150.44
2023-04-08T00:20:06.152Z,102153.22
2023-04-08T00:22:46.114Z,102156.94
2023-04-08T00:25:13.329Z,102147.59
2023-04-08T00:27:47.306Z,102152.97
2023-04-08T00:30:15.829Z,102158.28
2023-04-08T00:32:43.127Z,102157.50
2023-04-08T00:35:16.249Z,102166.50
2023-04-08T00:37:43.428Z,102166.72
2023-04-08T00:40:18.328Z,102161.63
2023-04-08T00:42:52.126Z,102175.75
2023-04-08T00:45:19.063Z,102174.13
2023-04-08T00:47:53.276Z,102183.88
2023-04-08T00:50:27.074Z,102174.38
2023-04-08T00:53:00.091Z,102173.59
2023-04-08T00:55:33.416Z,102171.88
2023-04-08T00:58:07.116Z,102170.31
2023-04-08T01:00:43.164Z,102173.88
2023-04-08T01:03:19.008Z,102183.63
2023-04-08T01:06:11.123Z,102180.19
2023-04-08T01:08:41.385Z,102182.03
2023-04-08T01:11:18.137Z,102181.25
2023-04-08T01:13:46.959Z,102177.84
2023-04-08T01:16:23.247Z,102173.69
2023-04-08T01:18:59.150Z,102182.34
2023-04-08T01:21:47.126Z,102184.19
2023-04-08T01:24:30.288Z,102182.63
2023-04-08T01:26:59.278Z,102190.63
2023-04-08T01:29:33.118Z,102195.16
2023-04-08T01:32:02.213Z,102192.59
2023-04-08T01:34:37.190Z,102195.19
2023-04-08T01:37:12.166Z,102190.06
2023-04-08T01:39:40.135Z,102192.78
2023-04-08T01:42:13.114Z,102194.59
2023-04-08T01:44:48.120Z,102190.22
2023-04-08T01:47:22.245Z,102200.75
2023-04-08T01:49:50.744Z,102198.16
2023-04-08T01:52:27.205Z,102205.19
2023-04-08T01:55:00.214Z,102194.06
2023-04-08T01:57:34.103Z,102194.81
2023-04-08T02:00:12.159Z,102201.91
2023-04-08T02:02:42.048Z,102205.31
2023-04-08T02:05:16.374Z,102207.78
2023-04-08T02:07:43.482Z,102202.44
2023-04-08T02:10:17.315Z,102200.75
2023-04-08T02:12:52.229Z,102198.16
2023-04-08T02:15:25.123Z,102199.91
2023-04-08T02:17:56.579Z,102202.63
2023-04-08T02:20:44.203Z,102207.03
2023-04-08T02:23:27.333Z,102203.41
2023-04-08T02:26:03.269Z,102212.28
2023-04-08T02:28:38.124Z,102209.88
2023-04-08T02:31:15.246Z,102210.69
2023-04-08T02:33:43.688Z,102209.78
2023-04-08T02:36:19.112Z,102221.22
2023-04-08T02:38:50.622Z,102212.66
2023-04-08T02:41:24.184Z,102219.47
2023-04-08T02:44:02.211Z,102226.47
2023-04-08T02:46:29.020Z,102227.38
2023-04-08T02:49:02.118Z,102223.75
2023-04-08T02:51:35.975Z,102220.34
2023-04-08T02:54:02.971Z,102217.75
2023-04-08T02:56:36.165Z,102233.44
2023-04-08T02:59:09.150Z,102236.22
2023-04-08T03:01:36.347Z,102242.31
2023-04-08T03:04:10.211Z,102239.63
2023-04-08T03:06:44.149Z,102245.56
2023-04-08T03:09:17.117Z,102235.03
2023-04-08T03:11:45.188Z,102243.59
2023-04-08T03:14:19.114Z,102240.09
2023-04-08T03:16:46.361Z,102247.06
2023-04-08T03:19:20.256Z,102244.44
2023-04-08T03:21:53.404Z,102240.09
2023-04-08T03:24:27.143Z,102239.25
2023-04-08T03:26:54.009Z,102238.38
2023-04-08T03:29:27.201Z,102242.81
2023-04-08T03:32:00.297Z,102241.88
2023-04-08T03:34:27.144Z,102238.50
2023-04-08T03:37:00.167Z,102249.81
2023-04-08T03:39:27.025Z,102243.72
2023-04-08T03:42:00.247Z,102242.88
2023-04-08T03:44:34.196Z,102239.50
2023-04-08T03:47:07.177Z,102255.25
2023-04-08T03:49:34.058Z,102261.38
2023-04-08T03:52:07.185Z,102252.69
2023-04-08T03:54:33.941Z,102257.22
2023-04-08T03:57:07.169Z,102255.53
2023-04-08T03:59:34.393Z,102258.16
2023-04-08T04:02:08.340Z,102254.69
2023-04-08T04:04:43.336Z,102259.94
2023-04-08T04:07:16.529Z,102256.47
2023-04-08T04:09:43.550Z,102256.53
2023-04-08T04:12:17.226Z,102259.13
2023-04-08T04:14:44.102Z,102266.09
2023-04-08T04:17:17.203Z,102267.00
2023-04-08T04:19:50.199Z,102259.94
2023-04-08T04:22:23.309Z,102262.56
2023-04-08T04:24:57.173Z,102261.59
2023-04-08T04:27:23.939Z,102264.22
2023-04-08T04:29:57.218Z,102267.59
2023-04-08T04:32:24.090Z,102268.38
2023-04-08T04:34:57.282Z,102274.44
2023-04-08T04:37:30.266Z,102283.16
2023-04-08T04:39:57.096Z,102288.22
2023-04-08T04:42:30.190Z,102281.13
2023-04-08T04:44:56.976Z,102275.94
2023-04-08T04:47:30.159Z,102281.97
2023-04-08T04:49:56.865Z,102295.88
2023-04-08T04:52:30.193Z,102296.66
2023-04-08T04:54:58.436Z,102291.44
2023-04-08T04:57:32.263Z,102291.34
2023-04-08T04:59:59.384Z,102293.84
2023-04-08T05:02:33.421Z,102288.44
2023-04-08T05:05:00.283Z,102300.59
2023-04-08T05:07:33.400Z,102298.81
2023-04-08T05:10:00.188Z,102294.38
2023-04-08T05:12:34.238Z,102286.50
2023-04-08T05:15:01.270Z,102296.88
2023-04-08T05:17:28.111Z,102299.47
2023-04-08T05:20:01.247Z,102309.91
2023-04-08T05:22:49.226Z,102302.84
2023-04-08T05:25:22.463Z,102320.22
2023-04-08T05:27:49.266Z,102312.22
2023-04-08T05:30:23.219Z,102318.13
2023-04-08T05:32:50.018Z,102321.47
2023-04-08T05:35:23.361Z,102323.09
2023-04-08T05:37:50.180Z,102323.88
2023-04-08T05:40:24.273Z,102336.72
2023-04-08T05:42:57.588Z,102338.25
2023-04-08T05:45:31.297Z,102340.75
2023-04-08T05:47:58.162Z,102343.31
2023-04-08T05:50:31.447Z,102333.63
2023-04-08T05:52:58.470Z,102338.22
2023-04-08T05:55:25.545Z,102356.59
2023-04-08T05:57:59.321Z,102347.97
2023-04-08T06:00:33.231Z,102363.78
2023-04-08T06:03:07.552Z,102363.81
2023-04-08T06:05:34.368Z,102363.69
2023-04-08T06:08:07.377Z,102363.53
2023-04-08T06:10:40.451Z,102368.63
2023-04-08T06:13:14.461Z,102361.38
2023-04-08T06:15:41.448Z,102350.03
2023-04-08T06:18:15.256Z,102371.66
2023-04-08T06:20:42.194Z,102385.44
2023-04-08T06:23:22.269Z,102379.31
2023-04-08T06:25:49.082Z,102370.66
2023-04-08T06:28:22.479Z,102373.25
2023-04-08T06:30:56.274Z,102386.41
2023-04-08T06:33:23.429Z,102384.66
2023-04-08T06:35:57.263Z,102386.47
2023-04-08T06:38:24.097Z,102374.41
2023-04-08T06:40:57.298Z,102395.81
2023-04-08T06:43:30.165Z,102391.13
2023-04-08T06:45:58.183Z,102388.09
2023-04-08T06:48:35.422Z,102386.81
2023-04-08T06:51:09.250Z,102384.75
2023-04-08T06:53:36.312Z,102383.72
2023-04-08T06:56:09.407Z,102395.78
2023-04-08T06:58:36.369Z,102384.13
2023-04-08T07:01:10.709Z,102386.47
2023-04-08T07:03:37.781Z,102395.69
2023-04-08T07:06:11.377Z,102399.47
2023-04-08T07:08:45.321Z,102397.31
2023-04-08T07:11:19.312Z,102400.28
2023-04-08T07:13:52.250Z,102401.56
2023-04-08T07:16:19.055Z,102408.00
2023-04-08T07:18:53.247Z,102415.31
2023-04-08T07:21:26.628Z,102414.84
2023-04-08T07:24:06.449Z,102417.81
2023-04-08T07:26:33.385Z,102412.25
2023-04-08T07:29:06.228Z,102417.44
2023-04-08T07:31:33.109Z,102427.75
2023-04-08T07:34:06.362Z,102418.91
2023-04-08T07:36:39.455Z,102419.38
2023-04-08T07:39:13.493Z,102420.06
2023-04-08T07:41:47.493Z,102423.13
2023-04-08T07:44:17.485Z,102427.13
2023-04-08T07:46:53.255Z,102423.22
2023-04-08T07:49:20.231Z,102417.44
2023-04-08T07:51:54.566Z,102425.84
2023-04-08T07:54:21.472Z,102420.53
2023-04-08T07:56:55.376Z,102422.22
2023-04-08T07:59:22.327Z,102430.78
2023-04-08T08:01:55.281Z,102429.88
2023-04-08T08:04:22.502Z,102436.81
2023-04-08T08:06:56.388Z,102430.50
2023-04-08T08:09:23.408Z,102442.44
2023-04-08T08:11:56.369Z,102436.97
2023-04-08T08:14:23.276Z,102447.81
2023-04-08T08:16:56.316Z,102451.38
2023-04-08T08:19:30.407Z,102453.28
2023-04-08T08:22:10.704Z,102448.38
2023-04-08T08:24:50.365Z,102444.72
2023-04-08T08:27:23.318Z,102444.59
2023-04-08T08:29:57.462Z,102449.69
2023-04-08T08:32:24.446Z,102450.44
2023-04-08T08:34:58.262Z,102434.38
2023-04-08T08:37:25.624Z,102440.41
2023-04-08T08:39:59.348Z,102438.44
2023-04-08T08:42:26.903Z,102437.75
2023-04-08T08:45:01.298Z,102458.34
2023-04-08T08:47:28.353Z,102453.50
2023-04-08T08:50:02.310Z,102470.50
2023-04-08T08:52:35.332Z,102468.75
2023-04-08T08:55:10.130Z,102465.09
2023-04-08T08:57:50.342Z,102461.13
2023-04-08T09:00:25.336Z,102455.09
2023-04-08T09:02:52.496Z,102471.56
2023-04-08T09:05:26.377Z,102464.00
2023-04-08T09:08:00.302Z,102477.72
2023-04-08T09:10:29.497Z,102473.06
2023-04-08T09:13:03.297Z,102470.75
2023-04-08T09:15:30.041Z,102470.50
2023-04-08T09:18:03.414Z,102476.38
2023-04-08T09:20:30.197Z,102483.81
2023-04-08T09:23:12.320Z,102484.06
2023-04-08T09:25:39.190Z,102475.84
2023-04-08T09:28:26.254Z,102482.91
2023-04-08T09:30:53.309Z,102486.03
2023-04-08T09:33:26.305Z,102482.25
2023-04-08T09:36:00.348Z,102469.00
2023-04-08T09:38:34.288Z,102489.63
2023-04-08T09:41:07.524Z,102487.41
2023-04-08T09:43:48.460Z,102488.28
2023-04-08T09:46:23.381Z,102484.16
2023-04-08T09:49:12.412Z,102482.53
2023-04-08T09:51:50.696Z,102480.97
2023-04-08T09:54:29.364Z,102455.19
2023-04-08T09:57:01.936Z,102444.06
2023-04-08T09:59:40.558Z,102484.09
2023-04-08T10:02:12.309Z,102461.09
2023-04-08T10:04:52.364Z,102484.00
2023-04-08T10:07:26.368Z,102467.66
2023-04-08T10:09:53.495Z,102463.28
2023-04-08T10:12:27.397Z,102468.69
2023-04-08T10:15:31.415Z,102480.06
2023-04-08T10:18:07.124Z,102481.50
2023-04-08T10:20:43.339Z,102484.00
2023-04-08T10:23:25.301Z,102474.59
2023-04-08T10:25:52.217Z,102479.34
2023-04-08T10:28:29.385Z,102489.91
2023-04-08T10:31:04.528Z,102477.97
2023-04-08T10:33:41.686Z,102485.28
2023-04-08T10:36:12.473Z,102485.72
2023-04-08T10:38:40.026Z,102471.75
2023-04-08T10:41:13.357Z,102475.63
2023-04-08T10:43:46.394Z,102477.81
2023-04-08T10:46:19.443Z,102453.38
2023-04-08T10:49:06.345Z,102476.69
2023-04-08T10:51:41.741Z,102474.03
2023-04-08T10:54:16.394Z,102473.78
2023-04-08T10:56:51.192Z,102463.28
2023-04-08T10:59:35.417Z,102463.03
2023-04-08T11:02:02.961Z,102473.97
2023-04-08T11:04:36.512Z,102453.41
2023-04-08T11:07:08.776Z,102471.91
2023-04-08T11:09:42.466Z,102468.56
2023-04-08T11:12:15.407Z,102469.84
2023-04-08T11:14:50.389Z,102476.72
2023-04-08T11:17:18.100Z,102468.81
2023-04-08T11:19:53.426Z,102478.59
2023-04-08T11:22:27.754Z,102458.66
2023-04-08T11:25:02.647Z,102474.97
2023-04-08T11:27:36.351Z,102477.41
2023-04-08T11:30:04.499Z,102471.84
2023-04-08T11:32:38.465Z,102473.88
2023-04-08T11:35:06.692Z,102480.44
2023-04-08T11:37:49.442Z,102459.72
2023-04-08T11:40:22.342Z,102461.91
2023-04-08T11:42:56.468Z,102474.63
2023-04-08T11:45:30.367Z,102471.72
2023-04-08T11:47:57.205Z,102473.75
2023-04-08T11:50:32.327Z,102463.22
2023-04-08T11:52:59.951Z,102472.66
2023-04-08T11:55:34.551Z,102482.50
2023-04-08T11:58:06.390Z,102476.13
2023-04-08T12:00:44.792Z,102464.88
2023-04-08T12:03:13.247Z,102485.22
2023-04-08T12:05:46.485Z,102473.44
2023-04-08T12:08:19.423Z,102489.28
2023-04-08T12:10:53.426Z,102487.59
2023-04-08T12:13:20.342Z,102490.81
2023-04-08T12:15:54.479Z,102487.31
2023-04-08T12:18:21.274Z,102476.94
2023-04-08T12:20:54.476Z,102488.34
2023-04-08T12:23:27.963Z,102488.44
2023-04-08T12:26:01.448Z,102473.88
2023-04-08T12:28:34.476Z,102484.56
2023-04-08T12:31:01.506Z,102478.03
2023-04-08T12:33:34.400Z,102495.59
2023-04-08T12:36:01.806Z,102490.78
2023-04-08T12:38:35.503Z,102497.97
2023-04-08T12:41:02.362Z,102476.63
2023-04-08T12:43:35.413Z,102463.00
2023-04-08T12:46:03.408Z,102484.16
2023-04-08T12:48:36.647Z,102486.19
2023-04-08T12:51:03.458Z,102484.97
2023-04-08T12:53:36.627Z,102493.22
2023-04-08T12:56:03.738Z,102493.34
2023-04-08T12:58:37.561Z,102482.63
2023-04-08T13:01:04.708Z,102480.66
2023-04-08T13:03:38.668Z,102469.22
2023-04-08T13:06:05.810Z,102474.03
2023-04-08T13:08:32.995Z,102484.63
2023-04-08T13:11:06.516Z,102472.56
2023-04-08T13:13:33.633Z,102496.06
2023-04-08T13:16:07.738Z,102498.56
2023-04-08T13:18:34.921Z,102478.22
2023-04-08T13:21:08.530Z,102478.50
2023-04-08T13:23:42.865Z,102494.06
2023-04-08T13:26:16.621Z,102489.69
2023-04-08T13:28:56.635Z,102461.63
2023-04-08T13:31:34.584Z,102471.06
2023-04-08T13:34:01.491Z,102469.06
2023-04-08T13:36:38.607Z,102473.09
2023-04-08T13:39:05.620Z,102476.09
2023-04-08T13:41:39.631Z,102463.84
2023-04-08T13:44:13.526Z,102454.16
2023-04-08T13:46:47.556Z,102468.03
2023-04-08T13:49:14.910Z,102461.16
2023-04-08T13:51:51.553Z,102480.06
2023-04-08T13:54:25.571Z,102492.00
2023-04-08T13:56:52.522Z,102462.44
2023-04-08T13:59:26.420Z,102488.13
2023-04-08T14:01:54.602Z,102452.59
2023-04-08T14:04:28.644Z,102479.59
2023-04-08T14:06:57.923Z,102468.66
2023-04-08T14:09:31.551Z,102481.75
2023-04-08T14:12:27.573Z,102453.31
2023-04-08T14:15:01.493Z,102483.66
2023-04-08T14:17:28.635Z,102459.91
2023-04-08T14:20:02.549Z,102476.25
2023-04-08T14:22:49.540Z,102476.63
2023-04-08T14:25:23.639Z,102470.91
2023-04-08T14:27:57.953Z,102474.09
2023-04-08T14:30:35.619Z,102468.75
2023-04-08T14:33:09.593Z,102471.41
2023-04-08T14:35:37.269Z,102469.22
2023-04-08T14:38:10.561Z,102462.22
2023-04-08T14:40:38.020Z,102453.84
2023-04-08T14:43:11.763Z,102459.94
2023-04-08T14:45:38.910Z,102465.75
2023-04-08T14:48:12.619Z,102476.53
2023-04-08T14:50:39.652Z,102473.28
2023-04-08T14:53:06.942Z,102447.50
2023-04-08T14:55:40.701Z,102463.88
2023-04-08T14:58:14.557Z,102471.66
2023-04-08T15:00:45.235Z,102461.94
2023-04-08T15:03:19.709Z,102454.13
2023-04-08T15:05:53.524Z,102454.56
2023-04-08T15:08:20.626Z,102449.31
2023-04-08T15:10:54.660Z,102466.78
2023-04-08T15:13:25.063Z,102488.72
2023-04-08T15:16:02.660Z,102451.91
2023-04-08T15:18:32.384Z,102481.06
2023-04-08T15:21:09.884Z,102458.53
2023-04-08T15:23:46.420Z,102445.00
2023-04-08T15:26:20.644Z,102479.34
2023-04-08T15:28:48.965Z,102456.97
2023-04-08T15:31:28.358Z,102481.41
2023-04-08T15:34:01.721Z,102459.78
2023-04-08T15:36:30.304Z,102449.00
2023-04-08T15:39:03.648Z,102461.41
2023-04-08T15:41:33.427Z,102465.00
2023-04-08T15:44:06.723Z,102443.66
2023-04-08T15:46:35.564Z,102461.81
2023-04-08T15:49:10.667Z,102466.38
2023-04-08T15:51:40.089Z,102450.66
2023-04-08T15:54:13.638Z,102449.00
2023-04-08T15:56:41.158Z,102461.22
2023-04-08T15:59:21.550Z,102440.22
2023-04-08T16:01:48.882Z,102449.94
2023-04-08T16:04:23.820Z,102467.75
2023-04-08T16:06:51.048Z,102447.19
2023-04-08T16:09:31.295Z,102453.44
2023-04-08T16:11:58.601Z,102480.66
2023-04-08T16:14:32.580Z,102446.28
2023-04-08T16:16:59.969Z,102458.25
2023-04-08T16:19:34.538Z,102467.31
2023-04-08T16:22:08.754Z,102473.81
2023-04-08T16:24:45.200Z,102451.38
2023-04-08T16:27:18.572Z,102485.41
2023-04-08T16:29:46.386Z,102465.72
2023-04-08T16:32:19.681Z,102480.28
2023-04-08T16:34:47.176Z,102460.34
2023-04-08T16:37:20.648Z,102477.41
2023-04-08T16:39:48.137Z,102461.19
2023-04-08T16:42:15.132Z,102454.78
2023-04-08T16:44:49.575Z,102486.97
2023-04-08T16:47:16.357Z,102491.38
2023-04-08T16:49:49.633Z,102483.97
2023-04-08T16:52:16.586Z,102478.44
2023-04-08T16:54:52.609Z,102456.19
2023-04-08T16:57:19.589Z,102495.13
2023-04-08T16:59:53.594Z,102486.72
2023-04-08T17:02:22.007Z,102474.59
2023-04-08T17:05:03.978Z,102467.06
2023-04-08T17:07:44.471Z,102483.53
2023-04-08T17:10:27.118Z,102463.53
2023-04-08T17:12:58.262Z,102460.09
2023-04-08T17:15:39.958Z,102506.94
2023-04-08T17:18:12.255Z,102471.75
2023-04-08T17:20:51.603Z,102479.66
2023-04-08T17:23:27.971Z,102508.19
2023-04-08T17:26:05.566Z,102479.03
2023-04-08T17:28:46.925Z,102505.19
2023-04-08T17:31:25.253Z,102482.69
2023-04-08T17:36:56.446Z,102508.84
2023-04-08T17:39:26.122Z,102516.13
2023-04-08T17:54:43.673Z,102490.94
2023-04-08T17:57:11.280Z,102508.41
2023-04-08T17:59:48.182Z,102499.16
2023-04-08T18:02:21.966Z,102517.19
2023-04-08T18:04:55.610Z,102520.00
2023-04-08T18:07:22.718Z,102514.03
2023-04-08T18:09:56.725Z,102516.78
2023-04-08T18:12:23.875Z,102522.94
2023-04-08T18:14:58.033Z,102524.03
2023-04-08T18:17:34.912Z,102505.69
2023-04-08T18:20:08.820Z,102537.97
2023-04-08T18:22:51.939Z,102524.25
2023-04-08T18:25:31.670Z,102520.94
2023-04-08T18:27:59.641Z,102514.19
2023-04-08T18:30:33.756Z,102540.13
2023-04-08T18:33:02.262Z,102528.91
2023-04-08T18:35:35.611Z,102522.09
2023-04-08T18:38:02.810Z,102529.13
2023-04-08T18:40:39.202Z,102545.59
2023-04-08T18:43:06.364Z,102528.47
2023-04-08T18:45:45.016Z,102545.06
2023-04-08T18:48:19.677Z,102557.19
2023-04-08T18:50:53.664Z,102563.34
2023-04-08T18:53:20.609Z,102553.91
2023-04-08T18:55:57.693Z,102521.88
2023-04-08T18:58:25.358Z,102556.72
2023-04-08T19:00:58.775Z,102563.56
2023-04-08T19:03:33.801Z,102561.09
2023-04-08T19:06:05.484Z,102554.22
2023-04-08T19:08:38.749Z,102543.94
2023-04-08T19:11:06.037Z,102542.16
2023-04-08T19:13:39.725Z,102564.78
2023-04-08T19:16:13.686Z,102569.00
2023-04-08T19:18:46.606Z,102569.00
2023-04-08T19:21:13.486Z,102548.47
2023-04-08T19:24:00.577Z,102572.75
2023-04-08T19:26:33.869Z,102561.47
2023-04-08T19:29:07.653Z,102547.81
2023-04-08T19:31:34.886Z,102581.53
2023-04-08T19:34:08.688Z,102571.97
2023-04-08T19:36:41.777Z,102584.25
2023-04-08T19:39:08.690Z,102580.03
2023-04-08T19:41:41.740Z,102579.94
2023-04-08T19:44:08.653Z,102585.19
2023-04-08T19:46:41.820Z,102581.81
2023-04-08T19:49:08.631Z,102584.47
2023-04-08T19:51:42.645Z,102586.31
2023-04-08T19:54:15.620Z,102580.22
2023-04-08T19:56:48.713Z,102574.09
2023-04-08T19:59:16.931Z,102572.59
2023-04-08T20:01:50.765Z,102574.97
2023-04-08T20:04:17.916Z,102579.41
2023-04-08T20:06:51.630Z,102580.44
2023-04-08T20:09:18.635Z,102590.03
2023-04-08T20:11:52.615Z,102583.03
2023-04-08T20:14:19.569Z,102592.78
2023-04-08T20:16:52.578Z,102594.53
2023-04-08T20:19:32.719Z,102585.75
2023-04-08T20:21:59.645Z,102591.06
2023-04-08T20:24:32.743Z,102589.28
2023-04-08T20:27:05.906Z,102584.09
2023-04-08T20:29:39.699Z,102587.69
2023-04-08T20:32:06.764Z,102584.88
2023-04-08T20:34:39.649Z,102589.31
2023-04-08T20:37:07.254Z,102589.28
2023-04-08T20:39:40.691Z,102590.19
2023-04-08T20:42:09.622Z,102584.97
2023-04-08T20:44:43.984Z,102585.09
2023-04-08T20:47:17.655Z,102576.19
2023-04-08T20:49:50.704Z,102585.19
2023-04-08T20:52:17.627Z,102572.94
2023-04-08T20:54:50.714Z,102580.59
2023-04-08T20:57:24.744Z,102565.09
2023-04-08T20:59:51.639Z,102573.66
2023-04-08T21:02:27.892Z,102572.72
2023-04-08T21:04:54.864Z,102574.72
2023-04-08T21:07:28.756Z,102579.06
2023-04-08T21:09:55.535Z,102572.94
2023-04-08T21:12:28.747Z,102574.66
2023-04-08T21:15:01.702Z,102572.94
2023-04-08T21:17:37.797Z,102574.81
2023-04-08T21:20:05.629Z,102567.88
2023-04-08T21:22:39.800Z,102572.22
2023-04-08T21:25:19.772Z,102579.25
2023-04-08T21:27:53.612Z,102572.22
2023-04-08T21:30:27.765Z,102575.72
2023-04-08T21:32:55.105Z,102578.38
2023-04-08T21:35:28.651Z,102566.09
2023-04-08T21:37:55.702Z,102576.66
2023-04-08T21:40:28.692Z,102574.94
2023-04-08T21:42:55.738Z,102578.44
2023-04-08T21:45:29.660Z,102581.19
2023-04-08T21:47:56.618Z,102582.19
2023-04-08T21:50:29.694Z,102581.41
2023-04-08T21:52:56.675Z,102574.41
2023-04-08T21:55:30.694Z,102578.84
2023-04-08T21:57:57.600Z,102584.06
2023-04-08T22:00:24.751Z,102576.19
2023-04-08T22:02:57.981Z,102582.53
2023-04-08T22:05:25.379Z,102588.72
2023-04-08T22:07:58.723Z,102599.28
2023-04-08T22:10:25.965Z,102586.25
2023-04-08T22:12:59.758Z,102582.78
2023-04-08T22:15:26.850Z,102588.72
2023-04-08T22:18:00.747Z,102596.69
2023-04-08T22:20:28.185Z,102589.69
2023-04-08T22:23:01.725Z,102593.22
2023-04-08T22:25:34.859Z,102581.94
2023-04-08T22:28:08.666Z,102584.59
2023-04-08T22:30:43.207Z,102583.81
2023-04-08T22:33:11.317Z,102581.41
2023-04-08T22:35:50.218Z,102564.03
2023-04-08T22:38:16.986Z,102550.03
2023-04-08T22:40:50.742Z,102576.00
2023-04-08T22:43:17.854Z,102583.84
2023-04-08T22:45:51.814Z,102590.09
2023-04-08T22:48:18.880Z,102571.78
2023-04-08T22:50:52.819Z,102588.47
2023-04-08T22:53:26.727Z,102581.63
2023-04-08T22:55:59.794Z,102568.53
2023-04-08T22:58:26.844Z,102589.47
2023-04-08T23:00:59.829Z,102590.47
2023-04-08T23:03:33.858Z,102584.28
2023-04-08T23:06:00.802Z,102580.88
2023-04-08T23:08:33.787Z,102560.97
2023-04-08T23:11:06.784Z,102587.16
2023-04-08T23:13:40.864Z,102583.75
2023-04-08T23:16:07.825Z,102589.00
2023-04-08T23:18:40.906Z,102558.63
2023-04-08T23:21:07.731Z,102581.16
2023-04-08T23:23:40.818Z,102581.09
2023-04-08T23:26:07.794Z,102583.81
2023-04-08T23:28:40.864Z,102570.88
2023-04-08T23:31:07.893Z,102584.88
2023-04-08T23:33:40.787Z,102577.94
2023-04-08T23:36:11.572Z,102582.22
2023-04-08T23:38:39.036Z,102590.34
2023-04-08T23:41:13.863Z,102580.97
2023-04-08T23:43:41.085Z,102576.72
2023-04-08T23:46:14.837Z,102591.38
2023-04-08T23:48:42.112Z,102566.22
2023-04-08T23:51:15.817Z,102541.97
2023-04-08T23:53:42.764Z,102578.41
2023-04-08T23:56:16.903Z,102563.75
2023-04-08T23:58:44.164Z,102576.78
